createdAt,value
2017-08-14T00:00:01.229Z,83.80
2017-08-14T00:02:29.479Z,83.70
2017-08-14T00:04:56.961Z,83.70
2017-08-14T00:16:02.673Z,83.90
2017-08-14T00:18:30.174Z,84.10
2017-08-14T00:20:58.446Z,84.40
2017-08-14T00:23:25.945Z,84.30
2017-08-14T00:25:53.444Z,84.10
2017-08-14T00:28:20.942Z,83.70
2017-08-14T00:30:48.428Z,83.50
2017-08-14T00:33:15.911Z,83.30
2017-08-14T00:35:43.399Z,83.00
2017-08-14T00:38:10.904Z,83.20
2017-08-14T00:40:38.390Z,83.20
2017-08-14T00:43:05.875Z,83.10
2017-08-14T00:45:33.366Z,83.10
2017-08-14T00:48:00.863Z,82.80
2017-08-14T00:50:28.351Z,82.80
2017-08-14T00:52:56.630Z,82.60
2017-08-14T00:55:24.288Z,82.60
2017-08-14T00:57:51.766Z,82.70
2017-08-14T01:00:19.286Z,82.90
2017-08-14T01:02:47.518Z,83.30
2017-08-14T01:05:15.002Z,83.30
2017-08-14T01:07:43.271Z,83.00
2017-08-14T01:10:10.758Z,83.00
2017-08-14T01:12:38.237Z,83.00
2017-08-14T01:15:05.737Z,82.70
2017-08-14T01:17:33.223Z,83.00
2017-08-14T01:20:00.751Z,83.30
2017-08-14T01:22:28.230Z,83.60
2017-08-14T01:24:55.752Z,83.60
2017-08-14T01:27:23.251Z,83.50
2017-08-14T01:29:50.731Z,83.80
2017-08-14T01:32:18.237Z,83.90
2017-08-14T01:34:45.716Z,83.70
2017-08-14T01:37:13.210Z,83.90
2017-08-14T01:39:40.706Z,84.30
2017-08-14T01:42:08.196Z,84.40
2017-08-14T01:44:35.666Z,83.70
2017-08-14T01:47:03.172Z,84.10
2017-08-14T01:49:30.651Z,83.80
2017-08-14T01:51:58.152Z,83.60
2017-08-14T01:54:25.634Z,83.40
2017-08-14T01:56:53.129Z,83.20
2017-08-14T01:59:20.618Z,82.80
2017-08-14T02:01:48.104Z,82.90
2017-08-14T02:04:15.594Z,83.20
2017-08-14T02:06:43.075Z,83.50
2017-08-14T02:09:10.578Z,83.60
2017-08-14T02:11:38.060Z,83.50
2017-08-14T02:14:05.554Z,83.70
2017-08-14T02:16:33.802Z,84.10
2017-08-14T02:19:01.336Z,84.70
2017-08-14T02:21:28.825Z,84.00
2017-08-14T02:23:56.322Z,84.10
2017-08-14T02:26:23.824Z,84.10
2017-08-14T02:28:51.340Z,84.10
2017-08-14T02:31:18.813Z,84.00
2017-08-14T02:33:46.282Z,84.00
2017-08-14T02:36:13.771Z,83.90
2017-08-14T02:38:41.256Z,83.90
2017-08-14T02:41:08.757Z,83.70
2017-08-14T02:43:36.234Z,83.40
2017-08-14T02:46:03.722Z,83.10
2017-08-14T02:48:31.196Z,83.00
2017-08-14T02:50:58.687Z,84.10
2017-08-14T02:53:26.165Z,83.60
2017-08-14T02:55:53.659Z,83.80
2017-08-14T02:58:21.153Z,83.70
2017-08-14T03:00:48.671Z,83.90
2017-08-14T03:03:16.165Z,84.00
2017-08-14T03:05:43.654Z,84.00
2017-08-14T03:08:11.143Z,84.10
2017-08-14T03:10:39.394Z,84.40
2017-08-14T03:13:06.898Z,84.40
2017-08-14T03:15:34.383Z,84.40
2017-08-14T03:18:01.893Z,84.50
2017-08-14T03:20:29.377Z,84.20
2017-08-14T03:22:56.890Z,83.80
2017-08-14T03:25:24.644Z,83.70
2017-08-14T03:27:52.148Z,83.20
2017-08-14T03:30:19.629Z,83.20
2017-08-14T03:32:47.135Z,83.30
2017-08-14T03:35:15.382Z,83.60
2017-08-14T03:37:42.852Z,83.50
2017-08-14T03:40:10.372Z,83.90
2017-08-14T03:42:37.887Z,83.80
2017-08-14T03:45:06.145Z,83.50
2017-08-14T03:47:33.630Z,83.50
2017-08-14T03:50:01.116Z,83.40
2017-08-14T03:52:28.595Z,83.10
2017-08-14T03:54:56.087Z,83.20
2017-08-14T03:57:24.353Z,83.50
2017-08-14T03:59:51.871Z,83.50
2017-08-14T04:02:19.360Z,83.80
2017-08-14T04:04:46.855Z,83.80
2017-08-14T04:07:14.359Z,84.10
2017-08-14T04:09:41.843Z,83.80
2017-08-14T04:12:09.374Z,83.70
2017-08-14T04:14:37.160Z,83.70
2017-08-14T04:17:04.651Z,84.80
2017-08-14T04:19:32.132Z,84.80
2017-08-14T04:21:59.622Z,84.90
2017-08-14T04:24:27.132Z,84.10
2017-08-14T04:26:54.626Z,84.80
2017-08-14T04:29:22.120Z,85.10
2017-08-14T04:31:50.391Z,84.00
2017-08-14T04:34:18.638Z,84.70
2017-08-14T04:36:46.127Z,85.00
2017-08-14T04:39:14.400Z,84.60
2017-08-14T04:41:41.879Z,85.50
2017-08-14T04:44:09.405Z,84.50
2017-08-14T04:46:36.862Z,84.50
2017-08-14T04:49:04.367Z,84.80
2017-08-14T04:51:31.864Z,85.30
2017-08-14T04:53:59.371Z,84.80
2017-08-14T04:56:26.847Z,84.20
2017-08-14T04:58:54.343Z,83.80
2017-08-14T05:01:21.824Z,83.80
2017-08-14T05:03:49.344Z,84.00
2017-08-14T05:06:16.834Z,84.00
2017-08-14T05:08:45.092Z,83.50
2017-08-14T05:11:12.593Z,83.40
2017-08-14T05:13:40.082Z,83.40
2017-08-14T05:16:07.577Z,83.40
2017-08-14T05:18:40.228Z,83.00
2017-08-14T05:21:07.722Z,83.00
2017-08-14T05:23:35.969Z,83.10
2017-08-14T05:26:03.464Z,83.00
2017-08-14T05:28:31.702Z,83.30
2017-08-14T05:30:59.195Z,83.30
2017-08-14T05:33:27.436Z,83.10
2017-08-14T05:35:54.923Z,83.10
2017-08-14T05:38:23.873Z,82.90
2017-08-14T05:40:51.363Z,82.90
2017-08-14T05:43:18.831Z,83.30
2017-08-14T05:45:47.091Z,83.50
2017-08-14T05:48:14.562Z,83.50
2017-08-14T05:50:42.023Z,83.60
2017-08-14T05:53:10.283Z,83.20
2017-08-14T05:55:37.782Z,83.20
2017-08-14T05:58:05.312Z,83.00
2017-08-14T06:00:33.008Z,82.70
2017-08-14T06:03:00.503Z,82.50
2017-08-14T06:05:27.979Z,82.20
2017-08-14T06:07:56.229Z,82.70
2017-08-14T06:10:23.738Z,82.60
2017-08-14T06:12:51.223Z,82.50
2017-08-14T06:15:18.703Z,82.40
2017-08-14T06:17:46.182Z,82.00
2017-08-14T06:20:14.419Z,82.10
2017-08-14T06:22:41.926Z,82.00
2017-08-14T06:25:09.412Z,81.90
2017-08-14T06:27:37.702Z,81.90
2017-08-14T06:30:05.215Z,81.60
2017-08-14T06:32:33.474Z,81.20
2017-08-14T06:35:00.958Z,81.10
2017-08-14T06:37:28.433Z,81.00
2017-08-14T06:39:55.934Z,80.30
2017-08-14T06:42:23.455Z,80.60
2017-08-14T06:44:50.970Z,80.40
2017-08-14T06:47:19.250Z,80.10
2017-08-14T06:49:46.770Z,80.00
2017-08-14T06:52:14.251Z,79.50
2017-08-14T06:54:41.742Z,79.80
2017-08-14T06:57:09.216Z,79.70
2017-08-14T06:59:36.695Z,79.70
2017-08-14T07:02:04.197Z,79.60
2017-08-14T07:04:32.435Z,78.80
2017-08-14T07:06:59.922Z,78.80
2017-08-14T07:09:28.167Z,77.90
2017-08-14T07:11:55.667Z,77.90
2017-08-14T07:14:23.904Z,77.10
2017-08-14T07:16:51.382Z,77.00
2017-08-14T07:19:18.859Z,77.30
2017-08-14T07:21:46.367Z,77.30
2017-08-14T07:24:13.839Z,76.80
2017-08-14T07:26:42.830Z,72.70
2017-08-14T07:29:10.298Z,73.00
2017-08-14T07:31:37.804Z,72.80
2017-08-14T07:34:05.299Z,72.80
2017-08-14T07:36:32.776Z,72.90
2017-08-14T07:39:00.269Z,72.60
2017-08-14T07:41:27.767Z,72.60
2017-08-14T07:43:55.283Z,72.60
2017-08-14T07:46:22.860Z,72.20
2017-08-14T07:48:50.384Z,71.90
2017-08-14T07:51:18.636Z,71.00
2017-08-14T07:53:46.169Z,70.90
2017-08-14T07:56:13.679Z,70.00
2017-08-14T07:58:41.164Z,69.50
2017-08-14T08:01:08.671Z,69.70
2017-08-14T08:03:36.989Z,68.40
2017-08-14T08:06:04.494Z,68.40
2017-08-14T08:08:32.051Z,67.80
2017-08-14T08:10:59.606Z,66.50
2017-08-14T08:13:27.132Z,65.80
2017-08-14T08:15:54.626Z,65.10
2017-08-14T08:18:22.111Z,64.80
2017-08-14T08:20:49.614Z,63.60
2017-08-14T08:23:17.118Z,62.40
2017-08-14T08:25:44.632Z,63.70
2017-08-14T08:28:12.119Z,63.00
2017-08-14T08:30:41.241Z,62.90
2017-08-14T08:33:08.781Z,62.60
2017-08-14T08:35:36.317Z,63.00
2017-08-14T08:38:03.814Z,61.60
2017-08-14T08:40:31.345Z,61.40
2017-08-14T08:42:58.836Z,61.40
2017-08-14T08:45:26.380Z,61.70
2017-08-14T08:47:54.635Z,60.70
2017-08-14T08:50:22.143Z,60.70
2017-08-14T08:52:49.761Z,60.50
2017-08-14T08:55:17.410Z,61.80
2017-08-14T08:57:44.938Z,61.50
2017-08-14T09:00:12.440Z,60.70
2017-08-14T09:02:39.948Z,59.90
2017-08-14T09:05:07.460Z,59.90
2017-08-14T09:07:35.743Z,59.40
2017-08-14T09:10:04.003Z,58.60
2017-08-14T09:12:31.510Z,58.50
2017-08-14T09:14:59.027Z,56.70
2017-08-14T09:17:27.330Z,58.10
2017-08-14T09:19:54.838Z,58.00
2017-08-14T09:22:22.344Z,57.40
2017-08-14T09:24:49.850Z,58.80
2017-08-14T09:27:17.373Z,58.80
2017-08-14T09:29:44.911Z,56.70
2017-08-14T09:32:12.408Z,57.70
2017-08-14T09:34:39.934Z,57.90
2017-08-14T09:37:07.454Z,57.10
2017-08-14T09:39:35.533Z,58.40
2017-08-14T09:42:03.817Z,57.80
2017-08-14T09:44:31.562Z,57.60
2017-08-14T09:46:59.144Z,57.70
2017-08-14T09:49:27.445Z,58.30
2017-08-14T09:51:54.959Z,57.70
2017-08-14T09:54:22.476Z,57.30
2017-08-14T09:56:50.003Z,57.50
2017-08-14T09:59:17.511Z,57.90
2017-08-14T10:01:45.027Z,58.70
2017-08-14T10:04:13.306Z,57.80
2017-08-14T10:06:40.825Z,57.80
2017-08-14T10:09:08.318Z,58.10
2017-08-14T10:11:35.839Z,61.80
2017-08-14T10:14:03.325Z,58.30
2017-08-14T10:16:30.843Z,57.30
2017-08-14T10:18:58.378Z,56.90
2017-08-14T10:21:25.877Z,57.40
2017-08-14T10:23:53.372Z,57.40
2017-08-14T10:26:20.850Z,56.50
2017-08-14T10:28:48.340Z,55.80
2017-08-14T10:31:15.827Z,56.90
2017-08-14T10:33:44.086Z,58.80
2017-08-14T10:36:11.563Z,58.80
2017-08-14T10:38:39.846Z,56.20
2017-08-14T10:41:07.348Z,55.50
2017-08-14T10:43:34.844Z,54.10
2017-08-14T10:46:02.323Z,53.90
2017-08-14T10:48:29.823Z,55.40
2017-08-14T10:50:57.294Z,55.80
2017-08-14T10:53:24.834Z,56.60
2017-08-14T10:55:52.338Z,55.10
2017-08-14T10:58:19.819Z,57.00
2017-08-14T11:00:47.307Z,55.70
2017-08-14T11:03:14.779Z,54.60
2017-08-14T11:05:42.287Z,53.80
2017-08-14T11:08:09.769Z,54.00
2017-08-14T11:10:37.263Z,53.40
2017-08-14T11:13:04.731Z,54.20
2017-08-14T11:15:32.234Z,53.30
2017-08-14T11:17:59.738Z,53.20
2017-08-14T11:20:27.231Z,54.50
2017-08-14T11:22:55.491Z,53.30
2017-08-14T11:25:23.751Z,53.00
2017-08-14T11:27:51.219Z,53.00
2017-08-14T11:30:18.700Z,51.10
2017-08-14T11:32:46.971Z,53.20
2017-08-14T11:35:15.262Z,52.00
2017-08-14T11:37:42.888Z,51.90
2017-08-14T11:40:10.360Z,51.20
2017-08-14T11:42:38.614Z,50.20
2017-08-14T11:45:06.093Z,50.10
2017-08-14T11:47:34.349Z,51.00
2017-08-14T11:50:01.839Z,50.90
2017-08-14T11:52:29.325Z,52.00
2017-08-14T11:54:56.803Z,52.20
2017-08-14T11:57:24.288Z,50.40
2017-08-14T11:59:52.532Z,48.30
2017-08-14T12:02:20.019Z,48.30
2017-08-14T12:04:47.514Z,49.00
2017-08-14T12:07:14.991Z,49.50
2017-08-14T12:09:42.483Z,49.10
2017-08-14T12:12:09.963Z,49.40
2017-08-14T12:14:37.457Z,49.40
2017-08-14T12:17:04.935Z,49.60
2017-08-14T12:19:32.419Z,51.00
2017-08-14T12:21:59.895Z,49.70
2017-08-14T12:24:28.151Z,46.80
2017-08-14T12:26:55.614Z,46.60
2017-08-14T12:29:23.853Z,46.80
2017-08-14T12:31:51.367Z,47.40
2017-08-14T12:34:18.840Z,47.30
2017-08-14T12:36:46.332Z,48.20
2017-08-14T12:39:13.811Z,47.50
2017-08-14T12:41:41.304Z,46.30
2017-08-14T12:44:08.794Z,46.40
2017-08-14T12:46:36.274Z,47.00
2017-08-14T12:49:03.756Z,49.60
2017-08-14T12:51:31.257Z,50.00
2017-08-14T12:53:58.740Z,48.30
2017-08-14T12:56:26.231Z,47.90
2017-08-14T12:58:53.702Z,47.60
2017-08-14T13:01:21.207Z,48.20
2017-08-14T13:03:48.699Z,49.00
2017-08-14T13:06:16.940Z,47.80
2017-08-14T13:08:44.466Z,47.10
2017-08-14T13:11:11.948Z,47.60
2017-08-14T13:13:39.454Z,47.20
2017-08-14T13:16:06.976Z,46.70
2017-08-14T13:18:34.477Z,47.80
2017-08-14T13:21:01.951Z,49.10
2017-08-14T13:23:29.462Z,49.00
2017-08-14T13:25:56.943Z,47.10
2017-08-14T13:28:25.209Z,48.00
2017-08-14T13:30:53.451Z,48.50
2017-08-14T13:33:20.932Z,48.20
2017-08-14T13:35:48.456Z,48.50
2017-08-14T13:38:15.947Z,48.70
2017-08-14T13:40:43.427Z,50.20
2017-08-14T13:43:11.676Z,49.20
2017-08-14T13:45:39.160Z,49.20
2017-08-14T13:48:06.643Z,49.10
2017-08-14T13:50:34.134Z,49.20
2017-08-14T13:53:01.617Z,48.20
2017-08-14T13:55:29.126Z,48.70
2017-08-14T13:57:56.605Z,48.00
2017-08-14T14:00:24.108Z,49.40
2017-08-14T14:02:52.369Z,47.10
2017-08-14T14:05:20.609Z,47.80
2017-08-14T14:07:48.116Z,47.10
2017-08-14T14:10:15.604Z,48.50
2017-08-14T14:12:43.098Z,48.50
2017-08-14T14:15:10.622Z,48.60
2017-08-14T14:17:38.127Z,49.50
2017-08-14T14:20:05.599Z,50.10
2017-08-14T14:22:36.312Z,50.70
2017-08-14T14:25:03.837Z,50.00
2017-08-14T14:27:31.343Z,49.70
2017-08-14T14:29:58.820Z,49.40
2017-08-14T14:32:26.304Z,49.50
2017-08-14T14:34:53.800Z,50.10
2017-08-14T14:37:21.271Z,51.40
2017-08-14T14:39:48.771Z,51.10
2017-08-14T14:42:16.256Z,51.40
2017-08-14T14:44:43.750Z,51.00
2017-08-14T14:47:11.830Z,51.20
2017-08-14T14:49:40.092Z,49.50
2017-08-14T14:52:07.564Z,49.50
2017-08-14T14:54:35.854Z,50.10
2017-08-14T14:57:03.326Z,50.10
2017-08-14T14:59:30.810Z,49.50
2017-08-14T15:01:58.491Z,50.40
2017-08-14T15:04:25.971Z,51.10
2017-08-14T15:06:54.226Z,51.20
2017-08-14T15:09:21.707Z,51.20
2017-08-14T15:11:49.198Z,51.20
2017-08-14T15:14:16.670Z,49.60
2017-08-14T15:16:44.167Z,49.20
2017-08-14T15:19:12.416Z,50.10
2017-08-14T15:21:39.902Z,50.10
2017-08-14T15:24:08.150Z,50.50
2017-08-14T15:26:35.643Z,50.50
2017-08-14T15:29:03.891Z,49.80
2017-08-14T15:31:31.615Z,49.80
2017-08-14T15:33:59.160Z,49.60
2017-08-14T15:36:26.660Z,49.00
2017-08-14T15:38:54.148Z,49.80
2017-08-14T15:41:21.629Z,49.60
2017-08-14T15:43:49.398Z,50.20
2017-08-14T15:46:17.152Z,50.50
2017-08-14T15:48:44.635Z,50.60
2017-08-14T15:51:12.117Z,51.60
2017-08-14T15:53:39.619Z,51.90
2017-08-14T15:56:07.096Z,51.50
2017-08-14T15:58:34.605Z,50.80
2017-08-14T16:01:02.081Z,50.80
2017-08-14T16:03:30.354Z,52.40
2017-08-14T16:05:58.651Z,52.20
2017-08-14T16:08:26.147Z,52.20
2017-08-14T16:10:53.647Z,51.70
2017-08-14T16:13:21.891Z,52.20
2017-08-14T16:15:49.379Z,52.10
2017-08-14T16:18:16.873Z,52.10
2017-08-14T16:20:44.369Z,52.10
2017-08-14T16:23:11.868Z,52.30
2017-08-14T16:25:39.365Z,52.60
2017-08-14T16:28:06.836Z,53.80
2017-08-14T16:30:34.327Z,54.00
2017-08-14T16:33:02.583Z,53.90
2017-08-14T16:35:30.085Z,53.90
2017-08-14T16:37:57.575Z,53.40
2017-08-14T16:40:25.053Z,53.40
2017-08-14T16:42:52.540Z,54.50
2017-08-14T16:45:20.053Z,54.80
2017-08-14T16:47:47.525Z,53.90
2017-08-14T16:50:15.008Z,54.10
2017-08-14T16:52:43.267Z,54.50
2017-08-14T16:55:11.515Z,55.30
2017-08-14T16:57:38.998Z,54.80
2017-08-14T17:00:06.482Z,55.00
2017-08-14T17:02:33.984Z,54.90
2017-08-14T17:05:01.487Z,55.30
2017-08-14T17:07:28.979Z,54.80
2017-08-14T17:09:56.463Z,54.90
2017-08-14T17:12:23.944Z,54.90
2017-08-14T17:14:51.431Z,55.50
2017-08-14T17:17:18.915Z,55.70
2017-08-14T17:19:46.422Z,55.20
2017-08-14T17:22:13.903Z,55.60
2017-08-14T17:24:41.399Z,55.20
2017-08-14T17:27:08.871Z,55.80
2017-08-14T17:29:36.358Z,55.50
2017-08-14T17:32:03.935Z,55.90
2017-08-14T17:34:31.439Z,55.50
2017-08-14T17:36:58.931Z,56.10
2017-08-14T17:39:26.425Z,56.40
2017-08-14T17:41:53.903Z,56.20
2017-08-14T17:44:21.388Z,56.30
2017-08-14T17:46:48.878Z,56.40
2017-08-14T17:49:16.354Z,56.40
2017-08-14T17:51:43.844Z,56.20
2017-08-14T17:54:11.320Z,56.40
2017-08-14T17:56:38.843Z,57.20
2017-08-14T17:59:06.319Z,57.40
2017-08-14T18:01:33.840Z,57.40
2017-08-14T18:04:01.328Z,58.00
2017-08-14T18:06:28.824Z,57.80
2017-08-14T18:08:57.066Z,58.00
2017-08-14T18:11:24.605Z,58.00
2017-08-14T18:13:52.089Z,58.30
2017-08-14T18:16:19.570Z,58.50
2017-08-14T18:18:47.074Z,58.80
2017-08-14T18:21:14.575Z,58.80
2017-08-14T18:23:42.067Z,59.10
2017-08-14T18:26:09.567Z,59.50
2017-08-14T18:28:37.069Z,60.00
2017-08-14T18:31:04.563Z,60.10
2017-08-14T18:33:32.054Z,60.40
2017-08-14T18:35:59.538Z,60.80
2017-08-14T18:38:27.043Z,61.00
2017-08-14T18:40:54.523Z,61.40
2017-08-14T18:43:22.033Z,61.80
2017-08-14T18:45:49.571Z,62.20
2017-08-14T18:48:17.855Z,62.80
2017-08-14T18:50:45.355Z,62.80
2017-08-14T18:53:12.981Z,62.80
2017-08-14T18:55:40.491Z,63.50
2017-08-14T18:58:07.999Z,63.30
2017-08-14T19:00:36.431Z,63.90
2017-08-14T19:03:03.931Z,64.10
2017-08-14T19:05:31.436Z,64.20
2017-08-14T19:08:00.519Z,64.50
2017-08-14T19:10:26.515Z,64.70
2017-08-14T19:12:53.989Z,64.90
2017-08-14T19:15:21.495Z,65.00
2017-08-14T19:17:51.514Z,65.60
2017-08-14T19:20:20.115Z,65.70
2017-08-14T19:22:47.613Z,65.70
2017-08-14T19:25:15.133Z,66.10
2017-08-14T19:27:42.622Z,66.00
2017-08-14T19:30:10.130Z,66.00
2017-08-14T19:32:38.380Z,66.30
2017-08-14T19:35:05.933Z,66.30
2017-08-14T19:37:33.457Z,66.40
2017-08-14T19:40:00.943Z,66.60
2017-08-14T19:42:28.455Z,66.50
2017-08-14T19:44:55.938Z,66.70
2017-08-14T19:47:24.014Z,66.70
2017-08-14T19:49:51.500Z,67.00
2017-08-14T19:52:18.995Z,67.10
2017-08-14T19:54:46.484Z,67.60
2017-08-14T19:57:14.005Z,67.50
2017-08-14T19:59:41.486Z,67.60
2017-08-14T20:02:08.969Z,67.90
2017-08-14T20:04:36.463Z,68.00
2017-08-14T20:07:03.955Z,68.00
2017-08-14T20:09:31.463Z,68.40
2017-08-14T20:11:59.740Z,68.10
2017-08-14T20:14:27.231Z,68.40
2017-08-14T20:16:54.716Z,68.60
2017-08-14T20:19:22.214Z,68.70
2017-08-14T20:21:49.696Z,69.00
2017-08-14T20:24:17.969Z,69.30
2017-08-14T20:26:46.223Z,69.60
2017-08-14T20:29:13.731Z,69.60
2017-08-14T20:31:41.221Z,69.50
2017-08-14T20:34:08.740Z,69.80
2017-08-14T20:36:36.246Z,69.70
2017-08-14T20:39:03.762Z,69.80
2017-08-14T20:41:31.288Z,69.90
2017-08-14T20:43:59.556Z,70.10
2017-08-14T20:46:27.060Z,70.00
2017-08-14T20:48:54.568Z,70.00
2017-08-14T20:51:22.076Z,70.00
2017-08-14T20:53:49.571Z,70.00
2017-08-14T20:56:17.084Z,69.70
2017-08-14T20:58:44.592Z,69.50
2017-08-14T21:01:12.091Z,69.60
2017-08-14T21:03:39.588Z,69.50
2017-08-14T21:06:07.104Z,69.60
2017-08-14T21:08:34.590Z,69.60
2017-08-14T21:11:02.103Z,69.80
2017-08-14T21:13:29.593Z,69.70
2017-08-14T21:15:57.088Z,69.80
2017-08-14T21:18:24.595Z,69.80
2017-08-14T21:20:52.111Z,70.10
2017-08-14T21:23:19.597Z,70.30
2017-08-14T21:25:47.110Z,70.20
2017-08-14T21:28:14.607Z,70.40
2017-08-14T21:30:42.873Z,70.30
2017-08-14T21:33:11.131Z,70.10
2017-08-14T21:35:38.973Z,70.00
2017-08-14T21:38:06.504Z,70.00
2017-08-14T21:40:33.993Z,70.00
2017-08-14T21:43:01.510Z,70.50
2017-08-14T21:45:29.018Z,69.80
2017-08-14T21:47:56.516Z,69.40
2017-08-14T21:50:24.762Z,69.40
2017-08-14T21:52:52.284Z,69.30
2017-08-14T21:55:19.791Z,69.40
2017-08-14T21:57:47.272Z,69.10
2017-08-14T22:00:14.790Z,69.40
2017-08-14T22:02:42.288Z,69.30
2017-08-14T22:05:09.796Z,69.20
2017-08-14T22:07:37.282Z,69.20
2017-08-14T22:10:04.795Z,69.20
2017-08-14T22:12:32.283Z,69.00
2017-08-14T22:14:59.793Z,68.80
2017-08-14T22:17:27.286Z,68.60
2017-08-14T22:19:54.802Z,68.70
2017-08-14T22:22:22.311Z,68.70
2017-08-14T22:24:49.792Z,68.60
2017-08-14T22:27:18.051Z,68.60
2017-08-14T22:29:45.555Z,68.50
2017-08-14T22:32:13.057Z,68.30
2017-08-14T22:34:40.540Z,68.40
2017-08-14T22:37:08.035Z,68.70
2017-08-14T22:39:35.536Z,68.30
2017-08-14T22:42:03.038Z,68.30
2017-08-14T22:44:30.537Z,68.30
2017-08-14T22:46:58.032Z,68.80
2017-08-14T22:49:26.304Z,68.70
2017-08-14T22:51:53.811Z,68.60
2017-08-14T22:54:21.303Z,68.50
2017-08-14T22:56:48.819Z,68.80
2017-08-14T22:59:16.313Z,68.90
2017-08-14T23:01:43.807Z,68.40
2017-08-14T23:04:11.291Z,68.50
2017-08-14T23:06:38.786Z,68.20
2017-08-14T23:09:06.279Z,68.20
2017-08-14T23:11:33.755Z,68.60
2017-08-14T23:14:01.269Z,68.70
2017-08-14T23:16:29.532Z,68.30
2017-08-14T23:18:57.039Z,68.60
2017-08-14T23:21:24.523Z,68.50
2017-08-14T23:23:52.032Z,68.40
2017-08-14T23:26:20.287Z,68.50
2017-08-14T23:28:47.778Z,68.50
2017-08-14T23:31:15.254Z,68.60
2017-08-14T23:33:42.758Z,68.80
2017-08-14T23:36:10.251Z,68.90
2017-08-14T23:38:37.752Z,69.00
2017-08-14T23:41:05.230Z,69.20
2017-08-14T23:43:32.953Z,69.10
2017-08-14T23:46:00.435Z,69.20
2017-08-14T23:48:27.939Z,69.60
2017-08-14T23:50:55.427Z,69.80
2017-08-14T23:53:22.934Z,70.40
2017-08-14T23:55:50.427Z,70.50
2017-08-14T23:58:17.919Z,70.20
